< < Back
Terminal Aerodrome Forecast


Current Version              Previous Versions:   1  2  3  4  5  6  7  8  9  

Terminal Aerodrome Forecast

852
FTUS44 KBMX 302321
TAFMGM
TAF
KMGM 302321Z 0100/0124 18007KT P6SM FEW050
     FM010200 VRB03KT P6SM SCT050
     FM010600 VRB03KT P6SM SCT010
      TEMPO 0109/0112 4SM BR SCT006 BKN010
     FM011300 28005KT P6SM SCT050=



Latest METAR

679
SAUS80 KWBC 010200 RRM
MTRMGM
METAR KMGM 010153Z 18003KT 10SM CLR 27/22 A2995 RMK AO2 SLP137
T02670222


USA.gov is the U.S. government's official web portal to all federal, state and local government web resources and services.